Terminal Aerodrome Forecast
Issued by NWS Tampa Bay Area, FL

Home | Current Version | Previous Version | Text Only | Print | Product List | Glossary On
Versions: 1 2 3 4 5 6 7 8 9 10 11 12 13 14 15
000
FTUS42 KTBW 242320
TAFFMY
TAF
KFMY 242320Z 2500/2524 09006KT P6SM VCTS SCT035CB BKN050
      TEMPO 2500/2501 VRB10G15KT 4SM TSRA BKN035CB
     FM250300 10007KT P6SM FEW030 SCT050 BKN250
     FM251400 12010KT P6SM SCT035 BKN250
     FM252100 13008KT P6SM VCTS SCT035CB BKN090=

USA.gov is the U.S. government's official web portal to all federal, state and local government web resources and services.